createdAt,value
2024-04-18T00:01:05.806Z,3.899
2024-04-18T00:05:58.458Z,4.862
2024-04-18T00:10:59.362Z,4.116
2024-04-18T00:16:04.017Z,4.019
2024-04-18T00:20:57.806Z,4.428
2024-04-18T00:25:58.191Z,4.453
2024-04-18T00:31:06.187Z,5.584
2024-04-18T00:35:57.152Z,6.427
2024-04-18T00:40:58.389Z,5.175
2024-04-18T00:46:04.541Z,4.694
2024-04-18T00:50:54.125Z,5.391
2024-04-18T00:55:58.540Z,5.511
2024-04-18T01:01:01.817Z,3.778
2024-04-18T01:05:59.781Z,5.56
2024-04-18T01:10:57.955Z,4.886
2024-04-18T01:15:55.572Z,6.523
2024-04-18T01:20:57.667Z,5.078
2024-04-18T01:25:57.474Z,4.958
2024-04-18T01:31:04.119Z,4.958
2024-04-18T01:35:53.087Z,5.922
2024-04-18T01:40:52.875Z,4.717
2024-04-18T01:45:59.794Z,5.488
2024-04-18T01:50:56.291Z,4.236
2024-04-18T01:55:56.879Z,4.284
2024-04-18T02:01:03.742Z,4.38
2024-04-18T02:05:56.100Z,3.995
2024-04-18T02:10:56.227Z,3.827
2024-04-18T02:15:55.825Z,5.584
2024-04-18T02:20:55.483Z,5.319
2024-04-18T02:25:56.193Z,5.511
2024-04-18T02:31:03.113Z,3.851
2024-04-18T02:35:53.358Z,4.862
2024-04-18T02:40:58.519Z,4.91
2024-04-18T02:45:59.345Z,5.006
2024-04-18T02:50:53.853Z,6.161
2024-04-18T02:55:57.030Z,7.172
2024-04-18T03:01:06.725Z,7.269
2024-04-18T03:06:00.048Z,5.608
2024-04-18T03:11:00.714Z,6.475
2024-04-18T03:16:01.675Z,4.525
2024-04-18T03:20:56.537Z,6.114
2024-04-18T03:26:04.560Z,3.2
2024-04-18T03:30:59.469Z,5.945
2024-04-18T03:35:55.150Z,5.247
2024-04-18T03:41:01.675Z,4.092
2024-04-18T03:46:00.178Z,6.066
2024-04-18T03:51:01.397Z,4.645
2024-04-18T03:56:00.876Z,6.884
2024-04-18T04:01:00.869Z,5.777
2024-04-18T04:05:58.493Z,7.366
2024-04-18T04:11:03.660Z,6.186
2024-04-18T04:16:00.750Z,7.414
2024-04-18T04:21:04.892Z,5.584
2024-04-18T04:26:01.335Z,6.788
2024-04-18T04:31:02.443Z,8.689
2024-04-18T04:36:01.157Z,6.138
2024-04-18T04:41:02.110Z,7.1
2024-04-18T04:46:11.020Z,4.164
2024-04-18T04:51:06.621Z,5.464
2024-04-18T04:56:04.187Z,5.68
2024-04-18T05:01:16.791Z,4.862
2024-04-18T05:06:06.562Z,5.295
2024-04-18T05:11:11.898Z,6.089
2024-04-18T05:16:03.019Z,6.427
2024-04-18T05:21:03.729Z,6.523
2024-04-18T05:26:01.457Z,4.934
2024-04-18T05:31:07.041Z,3.803
2024-04-18T05:36:06.432Z,4.139
2024-04-18T05:41:09.902Z,5.633
2024-04-18T05:46:04.049Z,6.98
2024-04-18T05:51:08.552Z,5.849
2024-04-18T05:56:02.594Z,5.175
2024-04-18T06:01:10.035Z,5.439
2024-04-18T06:06:06.012Z,5.873
2024-04-18T06:11:04.591Z,6.283
2024-04-18T06:16:12.848Z,6.138
2024-04-18T06:21:04.679Z,6.836
2024-04-18T06:26:04.726Z,5.608
2024-04-18T06:31:13.345Z,6.739
2024-04-18T06:36:06.047Z,6.33
2024-04-18T06:41:04.927Z,5.632
2024-04-18T06:46:12.622Z,5.945
2024-04-18T06:51:10.184Z,5.511
2024-04-18T06:56:07.334Z,3.586
2024-04-18T07:01:13.195Z,2.936
2024-04-18T07:06:05.991Z,3.731
2024-04-18T07:11:05.772Z,2.96
2024-04-18T07:16:06.022Z,1.853
2024-04-18T07:21:05.663Z,2.022
2024-04-18T07:26:05.512Z,3.369
2024-04-18T07:31:04.442Z,3.249
2024-04-18T07:36:05.947Z,4.789
2024-04-18T07:41:08.921Z,3.514
2024-04-18T07:46:10.756Z,2.214
2024-04-18T07:51:03.493Z,3.249
2024-04-18T07:56:06.059Z,5.367
2024-04-18T08:01:12.580Z,3.995
2024-04-18T08:06:13.025Z,3.972
2024-04-18T08:12:22.439Z,3.417
2024-04-18T08:16:12.317Z,4.814
2024-04-18T08:21:05.554Z,4.934
2024-04-18T08:25:58.745Z,4.356
2024-04-18T08:31:08.598Z,3.658
2024-04-18T08:36:06.779Z,4.742
2024-04-18T08:41:04.670Z,5.825
2024-04-18T08:46:09.681Z,3.369
2024-04-18T08:51:05.107Z,2.767
2024-04-18T08:56:05.308Z,4.333
2024-04-18T09:01:09.767Z,4.428
2024-04-18T09:06:06.825Z,6.21
2024-04-18T09:11:11.192Z,5.367
2024-04-18T09:16:03.929Z,4.236
2024-04-18T09:21:07.934Z,6.547
2024-04-18T09:26:03.767Z,5.223
2024-04-18T09:31:10.209Z,4.405
2024-04-18T09:36:08.125Z,3.322
2024-04-18T09:41:05.152Z,2.936
2024-04-18T09:46:11.812Z,2.575
2024-04-18T09:51:04.474Z,3.851
2024-04-18T09:56:03.862Z,4.236
2024-04-18T10:01:11.147Z,2.406
2024-04-18T10:06:02.994Z,3.249
2024-04-18T10:11:04.206Z,2.358
2024-04-18T10:16:05.111Z,2.117
2024-04-18T10:21:02.272Z,3.128
2024-04-18T10:26:04.279Z,3.394
2024-04-18T10:31:04.711Z,2.839
2024-04-18T10:36:04.597Z,2.864
2024-04-18T10:41:03.433Z,1.853
2024-04-18T10:46:02.869Z,4.717
2024-04-18T10:51:04.402Z,1.877
2024-04-18T10:56:07.420Z,1.011
2024-04-18T11:01:07.997Z,2.672
2024-04-18T11:06:03.910Z,2.022
2024-04-18T11:11:02.711Z,2.311
2024-04-18T11:16:06.658Z,2.286
2024-04-18T11:21:00.606Z,1.299
2024-04-18T11:26:05.145Z,1.011
2024-04-18T11:31:05.057Z,1.853
2024-04-18T11:36:02.247Z,2.527
2024-04-18T11:41:00.278Z,2.864
2024-04-18T11:46:04.198Z,1.299
2024-04-18T11:51:04.826Z,2.311
2024-04-18T11:56:06.208Z,2.142
2024-04-18T12:01:05.305Z,3.417
2024-04-18T12:06:03.050Z,2.142
2024-04-18T12:11:02.056Z,4.116
2024-04-18T12:16:05.303Z,3.249
2024-04-18T12:21:05.469Z,2.888
2024-04-18T12:26:05.077Z,1.299
2024-04-18T12:31:09.643Z,1.733
2024-04-18T12:36:05.474Z,1.155
2024-04-18T12:41:06.979Z,3.008
2024-04-18T12:46:26.388Z,1.251
2024-04-18T12:51:02.071Z,1.155
2024-04-18T12:56:00.154Z,0.577
2024-04-18T13:01:12.796Z,1.155
2024-04-18T13:06:02.524Z,2.311
2024-04-18T13:11:02.295Z,1.275
2024-04-18T13:16:09.860Z,0.433
2024-04-18T13:20:59.615Z,1.155
2024-04-18T13:26:03.967Z,0.577
2024-04-18T13:31:10.764Z,1.564
2024-04-18T13:36:01.550Z,1.251
2024-04-18T13:40:58.646Z,1.419
2024-04-18T13:46:06.311Z,1.395
2024-04-18T13:50:59.664Z,0.866
2024-04-18T13:56:03.046Z,0.577
2024-04-18T14:01:07.193Z,0.722
2024-04-18T14:06:02.660Z,1.299
2024-04-18T14:11:02.057Z,1.853
2024-04-18T14:16:02.439Z,2.455
2024-04-18T14:21:00.049Z,0.866
2024-04-18T14:26:03.766Z,1.539
2024-04-18T14:31:04.274Z,1.588
2024-04-18T14:36:06.317Z,1.155
2024-04-18T14:41:13.329Z,0.866
2024-04-18T14:46:04.093Z,0.722
2024-04-18T14:51:04.674Z,1.973
2024-04-18T14:56:01.832Z,0.433
2024-04-18T15:01:03.683Z,1.805
2024-04-18T15:06:02.785Z,1.636
2024-04-18T15:11:04.547Z,1.733
2024-04-18T15:16:08.762Z,2.431
2024-04-18T15:21:03.371Z,1.9
2024-04-18T15:26:04.270Z,2.936
2024-04-18T15:31:07.001Z,2.575
2024-04-18T15:36:04.220Z,3.466
2024-04-18T15:41:04.982Z,2.575
2024-04-18T15:46:09.598Z,2.431
2024-04-18T15:51:05.780Z,2.166
2024-04-18T15:56:03.720Z,2.406
2024-04-18T16:01:07.666Z,2.238
2024-04-18T16:06:02.564Z,1.973
2024-04-18T16:11:02.170Z,1.853
2024-04-18T16:16:08.341Z,2.262
2024-04-18T16:21:03.436Z,1.275
2024-04-18T16:25:59.168Z,1.949
2024-04-18T16:31:08.581Z,1.564
2024-04-18T16:35:57.610Z,2.455
2024-04-18T16:41:01.665Z,1.733
2024-04-18T16:46:05.779Z,2.094
2024-04-18T16:51:00.479Z,1.853
2024-04-18T16:56:04.912Z,2.431
2024-04-18T17:01:17.103Z,2.719
2024-04-18T17:06:02.432Z,6.788
2024-04-18T17:11:03.040Z,4.669
2024-04-18T17:16:02.075Z,3.442
2024-04-18T17:20:59.730Z,2.286
2024-04-18T17:26:02.167Z,3.514
2024-04-18T17:31:02.846Z,4.236
2024-04-18T17:36:00.804Z,1.708
2024-04-18T17:46:13.114Z,6.427
2024-04-18T17:51:01.192Z,3.417
2024-04-18T17:56:00.514Z,2.455
2024-04-18T18:01:08.364Z,6.066
2024-04-18T18:05:58.686Z,3.972
2024-04-18T18:10:58.015Z,3.128
2024-04-18T18:15:57.878Z,4.333
2024-04-18T18:20:59.879Z,3.128
2024-04-18T18:26:00.343Z,3.851
2024-04-18T18:31:14.440Z,4.694
2024-04-18T18:35:56.728Z,2.503
2024-04-18T18:41:00.236Z,4.886
2024-04-18T18:46:13.964Z,2.094
2024-04-18T18:51:03.766Z,2.719
2024-04-18T18:56:01.153Z,4.067
2024-04-18T19:01:08.543Z,4.092
2024-04-18T19:05:58.107Z,2.431
2024-04-18T19:10:50.346Z,4.934
2024-04-18T19:15:58.381Z,5.849
2024-04-18T19:20:58.704Z,4.694
2024-04-18T19:25:58.637Z,6.283
2024-04-18T19:31:08.277Z,3.394
2024-04-18T19:36:00.021Z,3.177
2024-04-18T19:40:57.404Z,2.575
2024-04-18T19:46:08.180Z,2.551
2024-04-18T19:51:00.259Z,2.478
2024-04-18T19:56:00.215Z,2.311
2024-04-18T20:01:16.350Z,3.683
2024-04-18T20:05:59.545Z,3.683
2024-04-18T20:11:01.255Z,3.586
2024-04-18T20:16:11.658Z,2.214
2024-04-18T20:21:02.966Z,2.695
2024-04-18T20:25:58.276Z,3.658
2024-04-18T20:31:05.327Z,3.875
2024-04-18T20:36:00.273Z,2.792
2024-04-18T20:40:56.962Z,3.128
2024-04-18T20:46:03.296Z,2.744
2024-04-18T20:50:59.127Z,5.367
2024-04-18T20:55:58.065Z,4.308
2024-04-18T21:01:06.518Z,3.008
2024-04-18T21:05:59.284Z,2.96
2024-04-18T21:10:59.249Z,4.092
2024-04-18T21:15:56.558Z,3.417
2024-04-18T21:20:53.737Z,4.284
2024-04-18T21:25:58.232Z,4.5
2024-04-18T21:30:59.626Z,3.369
2024-04-18T21:35:57.639Z,5.15
2024-04-18T21:41:00.485Z,4.308
2024-04-18T21:45:57.956Z,3.249
2024-04-18T21:50:59.081Z,1.733
2024-04-18T21:56:00.115Z,2.839
2024-04-18T22:01:18.710Z,2.455
2024-04-18T22:06:05.332Z,4.236
2024-04-18T22:10:56.798Z,2.744
2024-04-18T22:16:21.592Z,3.683
2024-04-18T22:20:58.633Z,4.188
2024-04-18T22:26:00.203Z,4.236
2024-04-18T22:31:00.298Z,3.803
2024-04-18T22:35:58.618Z,3.345
2024-04-18T22:40:54.245Z,4.789
2024-04-18T22:46:03.179Z,3.923
2024-04-18T22:50:53.018Z,3.417
2024-04-18T22:55:56.824Z,2.311
2024-04-18T23:01:04.999Z,3.345
2024-04-18T23:05:58.955Z,3.297
2024-04-18T23:10:57.240Z,3.562
2024-04-18T23:15:57.618Z,2.864
2024-04-18T23:20:49.329Z,2.864
2024-04-18T23:25:52.440Z,2.792
2024-04-18T23:30:56.963Z,2.767
2024-04-18T23:35:52.463Z,3.345
2024-04-18T23:40:51.066Z,3.177
2024-04-18T23:45:58.247Z,2.527
2024-04-18T23:50:55.100Z,5.295
2024-04-18T23:55:58.018Z,3.297
